Terminal Aerodrome Forecast
Issued by NWS

Home | Current Version | Previous Version | Text Only | Print | Product List | Glossary On
Versions: 1 2 3 4 5 6 7 8 9 10 11 12 13 14 15 16 17 18 19 20 21 22 23 24 25 26 27 28 29 30 31
000
FTUS45 KTWC 311140
TAFOLS
TAF
KOLS 311140Z 3112/0112 VRB04KT P6SM BKN110 OVC200
     FM311500 13010KT P6SM SCT100 BKN200
     FM312000 22010KT P6SM SCT070 BKN100
     FM312200 31012KT P6SM VCTS BKN060CB BKN090
     FM010200 20007KT P6SM SCT060 BKN090
     FM010700 VRB03KT P6SM SCT110 BKN200=

USA.gov is the U.S. government's official web portal to all federal, state and local government web resources and services.